sensor_id;sensor_type;location;lat;lon;timestamp;temperature;humidity
47576;DHT22;33304;52.456;13.328;2024-02-26T00:01:31;5.50;30.20
47576;DHT22;33304;52.456;13.328;2024-02-26T00:03:59;5.40;29.80
47576;DHT22;33304;52.456;13.328;2024-02-26T00:06:28;5.40;30.40
47576;DHT22;33304;52.456;13.328;2024-02-26T00:08:56;5.50;30.10
47576;DHT22;33304;52.456;13.328;2024-02-26T00:11:23;5.40;30.60
47576;DHT22;33304;52.456;13.328;2024-02-26T00:13:51;5.30;31.30
47576;DHT22;33304;52.456;13.328;2024-02-26T00:16:18;5.30;32.20
47576;DHT22;33304;52.456;13.328;2024-02-26T00:18:45;5.50;32.10
47576;DHT22;33304;52.456;13.328;2024-02-26T00:21:12;5.50;29.90
47576;DHT22;33304;52.456;13.328;2024-02-26T00:23:39;5.60;29.30
47576;DHT22;33304;52.456;13.328;2024-02-26T00:26:07;5.50;30.00
47576;DHT22;33304;52.456;13.328;2024-02-26T00:28:34;5.30;32.20
47576;DHT22;33304;52.456;13.328;2024-02-26T00:31:02;5.30;33.80
47576;DHT22;33304;52.456;13.328;2024-02-26T00:33:29;5.40;34.50
47576;DHT22;33304;52.456;13.328;2024-02-26T00:35:56;5.60;33.70
47576;DHT22;33304;52.456;13.328;2024-02-26T00:38:23;5.50;32.70
47576;DHT22;33304;52.456;13.328;2024-02-26T00:40:50;5.60;32.60
47576;DHT22;33304;52.456;13.328;2024-02-26T00:43:18;5.40;33.60
47576;DHT22;33304;52.456;13.328;2024-02-26T00:45:45;5.40;35.40
47576;DHT22;33304;52.456;13.328;2024-02-26T00:48:13;5.40;36.30
47576;DHT22;33304;52.456;13.328;2024-02-26T00:50:40;5.40;37.10
47576;DHT22;33304;52.456;13.328;2024-02-26T00:53:08;5.50;37.30
47576;DHT22;33304;52.456;13.328;2024-02-26T00:55:35;5.40;38.00
47576;DHT22;33304;52.456;13.328;2024-02-26T00:58:02;5.40;39.90
47576;DHT22;33304;52.456;13.328;2024-02-26T01:00:31;5.40;38.70
47576;DHT22;33304;52.456;13.328;2024-02-26T01:02:58;5.40;40.20
47576;DHT22;33304;52.456;13.328;2024-02-26T01:05:25;5.30;40.20
47576;DHT22;33304;52.456;13.328;2024-02-26T01:07:52;5.30;43.00
47576;DHT22;33304;52.456;13.328;2024-02-26T01:10:19;5.10;45.70
47576;DHT22;33304;52.456;13.328;2024-02-26T01:12:46;5.10;51.20
47576;DHT22;33304;52.456;13.328;2024-02-26T01:15:14;5.10;51.70
47576;DHT22;33304;52.456;13.328;2024-02-26T01:17:42;5.10;51.80
47576;DHT22;33304;52.456;13.328;2024-02-26T01:20:10;5.00;56.60
47576;DHT22;33304;52.456;13.328;2024-02-26T01:22:37;5.00;56.60
47576;DHT22;33304;52.456;13.328;2024-02-26T01:25:07;5.00;56.70
47576;DHT22;33304;52.456;13.328;2024-02-26T01:27:35;5.00;57.60
47576;DHT22;33304;52.456;13.328;2024-02-26T01:30:02;5.20;57.00
47576;DHT22;33304;52.456;13.328;2024-02-26T01:32:29;5.10;56.70
47576;DHT22;33304;52.456;13.328;2024-02-26T01:34:58;4.90;57.60
47576;DHT22;33304;52.456;13.328;2024-02-26T01:37:25;4.70;61.70
47576;DHT22;33304;52.456;13.328;2024-02-26T01:39:52;4.60;69.80
47576;DHT22;33304;52.456;13.328;2024-02-26T01:42:19;4.60;73.20
47576;DHT22;33304;52.456;13.328;2024-02-26T01:44:46;4.70;75.00
47576;DHT22;33304;52.456;13.328;2024-02-26T01:47:13;4.90;72.60
47576;DHT22;33304;52.456;13.328;2024-02-26T01:49:41;4.90;68.40
47576;DHT22;33304;52.456;13.328;2024-02-26T01:52:10;4.90;63.90
47576;DHT22;33304;52.456;13.328;2024-02-26T01:54:38;4.80;66.10
47576;DHT22;33304;52.456;13.328;2024-02-26T01:57:06;4.60;69.20
47576;DHT22;33304;52.456;13.328;2024-02-26T01:59:35;4.60;72.20
47576;DHT22;33304;52.456;13.328;2024-02-26T02:02:03;4.50;75.70
47576;DHT22;33304;52.456;13.328;2024-02-26T02:04:32;4.60;78.60
47576;DHT22;33304;52.456;13.328;2024-02-26T02:07:00;4.60;80.00
47576;DHT22;33304;52.456;13.328;2024-02-26T02:09:28;4.80;76.20
47576;DHT22;33304;52.456;13.328;2024-02-26T02:11:56;4.80;72.50
47576;DHT22;33304;52.456;13.328;2024-02-26T02:14:24;4.70;72.40
47576;DHT22;33304;52.456;13.328;2024-02-26T02:16:52;4.60;75.70
47576;DHT22;33304;52.456;13.328;2024-02-26T02:19:19;4.60;80.10
47576;DHT22;33304;52.456;13.328;2024-02-26T02:21:47;4.60;82.70
47576;DHT22;33304;52.456;13.328;2024-02-26T02:24:14;4.70;82.80
47576;DHT22;33304;52.456;13.328;2024-02-26T02:26:41;4.70;80.10
47576;DHT22;33304;52.456;13.328;2024-02-26T02:29:09;4.80;76.40
47576;DHT22;33304;52.456;13.328;2024-02-26T02:31:36;4.80;78.40
47576;DHT22;33304;52.456;13.328;2024-02-26T02:34:03;4.80;78.40
47576;DHT22;33304;52.456;13.328;2024-02-26T02:36:31;4.80;79.00
47576;DHT22;33304;52.456;13.328;2024-02-26T02:38:59;4.70;80.40
47576;DHT22;33304;52.456;13.328;2024-02-26T02:41:26;4.70;82.80
47576;DHT22;33304;52.456;13.328;2024-02-26T02:43:55;4.70;82.40
47576;DHT22;33304;52.456;13.328;2024-02-26T02:46:23;4.70;84.10
47576;DHT22;33304;52.456;13.328;2024-02-26T02:48:50;4.60;82.70
47576;DHT22;33304;52.456;13.328;2024-02-26T02:51:17;4.50;87.60
47576;DHT22;33304;52.456;13.328;2024-02-26T02:53:44;4.50;88.70
47576;DHT22;33304;52.456;13.328;2024-02-26T02:56:13;4.40;93.40
47576;DHT22;33304;52.456;13.328;2024-02-26T02:58:40;4.50;93.40
47576;DHT22;33304;52.456;13.328;2024-02-26T03:01:07;4.50;93.40
47576;DHT22;33304;52.456;13.328;2024-02-26T03:03:34;4.60;91.90
47576;DHT22;33304;52.456;13.328;2024-02-26T03:06:02;4.40;92.30
47576;DHT22;33304;52.456;13.328;2024-02-26T03:08:29;4.40;92.30
47576;DHT22;33304;52.456;13.328;2024-02-26T03:10:58;4.50;93.70
47576;DHT22;33304;52.456;13.328;2024-02-26T03:13:26;4.50;92.40
47576;DHT22;33304;52.456;13.328;2024-02-26T03:15:53;4.50;93.40
47576;DHT22;33304;52.456;13.328;2024-02-26T03:18:20;4.50;93.30
47576;DHT22;33304;52.456;13.328;2024-02-26T03:20:49;4.40;93.60
47576;DHT22;33304;52.456;13.328;2024-02-26T03:23:16;4.40;93.30
47576;DHT22;33304;52.456;13.328;2024-02-26T03:25:44;4.40;92.80
47576;DHT22;33304;52.456;13.328;2024-02-26T03:28:13;4.40;93.30
47576;DHT22;33304;52.456;13.328;2024-02-26T03:30:42;4.30;93.30
47576;DHT22;33304;52.456;13.328;2024-02-26T03:33:09;4.30;93.30
47576;DHT22;33304;52.456;13.328;2024-02-26T03:35:36;4.30;93.30
47576;DHT22;33304;52.456;13.328;2024-02-26T03:38:04;4.20;93.20
47576;DHT22;33304;52.456;13.328;2024-02-26T03:40:31;4.20;94.70
47576;DHT22;33304;52.456;13.328;2024-02-26T03:42:58;4.20;95.40
47576;DHT22;33304;52.456;13.328;2024-02-26T03:45:25;4.20;95.40
47576;DHT22;33304;52.456;13.328;2024-02-26T03:47:54;4.20;94.60
47576;DHT22;33304;52.456;13.328;2024-02-26T03:50:21;4.10;95.40
47576;DHT22;33304;52.456;13.328;2024-02-26T03:52:48;4.10;95.60
47576;DHT22;33304;52.456;13.328;2024-02-26T03:55:15;3.90;97.40
47576;DHT22;33304;52.456;13.328;2024-02-26T03:57:46;3.90;99.90
47576;DHT22;33304;52.456;13.328;2024-02-26T04:00:14;3.90;99.90
47576;DHT22;33304;52.456;13.328;2024-02-26T04:02:41;3.80;99.90
47576;DHT22;33304;52.456;13.328;2024-02-26T04:05:11;4.00;99.90
47576;DHT22;33304;52.456;13.328;2024-02-26T04:07:38;3.90;99.90
47576;DHT22;33304;52.456;13.328;2024-02-26T04:10:09;3.80;99.90
47576;DHT22;33304;52.456;13.328;2024-02-26T04:12:38;3.80;99.90
47576;DHT22;33304;52.456;13.328;2024-02-26T04:15:07;3.70;99.90
47576;DHT22;33304;52.456;13.328;2024-02-26T04:17:34;3.70;99.90
47576;DHT22;33304;52.456;13.328;2024-02-26T04:20:02;3.70;99.90
47576;DHT22;33304;52.456;13.328;2024-02-26T04:22:32;3.60;99.90
47576;DHT22;33304;52.456;13.328;2024-02-26T04:24:59;3.70;99.90
47576;DHT22;33304;52.456;13.328;2024-02-26T04:27:26;3.70;99.90
47576;DHT22;33304;52.456;13.328;2024-02-26T04:29:53;3.70;99.90
47576;DHT22;33304;52.456;13.328;2024-02-26T04:32:20;3.70;99.90
47576;DHT22;33304;52.456;13.328;2024-02-26T04:34:47;3.60;99.90
47576;DHT22;33304;52.456;13.328;2024-02-26T04:37:14;3.60;99.90
47576;DHT22;33304;52.456;13.328;2024-02-26T04:39:43;3.60;99.90
47576;DHT22;33304;52.456;13.328;2024-02-26T04:42:10;3.60;99.90
47576;DHT22;33304;52.456;13.328;2024-02-26T04:44:37;3.60;99.90
47576;DHT22;33304;52.456;13.328;2024-02-26T04:47:04;3.50;99.90
47576;DHT22;33304;52.456;13.328;2024-02-26T04:49:31;3.50;99.90
47576;DHT22;33304;52.456;13.328;2024-02-26T04:51:58;3.60;99.90
47576;DHT22;33304;52.456;13.328;2024-02-26T04:54:25;3.60;99.90
47576;DHT22;33304;52.456;13.328;2024-02-26T04:56:53;3.70;99.90
47576;DHT22;33304;52.456;13.328;2024-02-26T04:59:20;3.70;99.90
47576;DHT22;33304;52.456;13.328;2024-02-26T05:01:47;3.70;99.90
47576;DHT22;33304;52.456;13.328;2024-02-26T05:04:14;3.70;99.90
47576;DHT22;33304;52.456;13.328;2024-02-26T05:06:42;3.80;99.90
47576;DHT22;33304;52.456;13.328;2024-02-26T05:09:09;3.70;99.90
47576;DHT22;33304;52.456;13.328;2024-02-26T05:11:36;3.70;99.90
47576;DHT22;33304;52.456;13.328;2024-02-26T05:14:05;3.80;99.90
47576;DHT22;33304;52.456;13.328;2024-02-26T05:16:32;3.70;99.90
47576;DHT22;33304;52.456;13.328;2024-02-26T05:18:59;3.90;99.90
47576;DHT22;33304;52.456;13.328;2024-02-26T05:21:26;3.80;99.90
47576;DHT22;33304;52.456;13.328;2024-02-26T05:23:53;3.80;99.90
47576;DHT22;33304;52.456;13.328;2024-02-26T05:26:20;3.80;99.90
47576;DHT22;33304;52.456;13.328;2024-02-26T05:28:48;3.70;99.90
47576;DHT22;33304;52.456;13.328;2024-02-26T05:31:17;3.70;99.90
47576;DHT22;33304;52.456;13.328;2024-02-26T05:33:44;3.60;99.90
47576;DHT22;33304;52.456;13.328;2024-02-26T05:36:18;3.70;99.90
47576;DHT22;33304;52.456;13.328;2024-02-26T05:38:45;3.70;99.90
47576;DHT22;33304;52.456;13.328;2024-02-26T05:41:12;3.80;99.90
47576;DHT22;33304;52.456;13.328;2024-02-26T05:43:40;3.90;99.90
47576;DHT22;33304;52.456;13.328;2024-02-26T05:46:07;3.90;99.90
47576;DHT22;33304;52.456;13.328;2024-02-26T05:48:36;3.90;99.90
47576;DHT22;33304;52.456;13.328;2024-02-26T05:51:04;3.90;99.90
47576;DHT22;33304;52.456;13.328;2024-02-26T05:53:31;3.90;99.90
47576;DHT22;33304;52.456;13.328;2024-02-26T05:55:58;3.80;99.90
47576;DHT22;33304;52.456;13.328;2024-02-26T05:58:25;3.80;99.90
47576;DHT22;33304;52.456;13.328;2024-02-26T06:00:52;3.90;99.90
47576;DHT22;33304;52.456;13.328;2024-02-26T06:03:20;4.00;99.90
47576;DHT22;33304;52.456;13.328;2024-02-26T06:05:48;4.00;99.90
47576;DHT22;33304;52.456;13.328;2024-02-26T06:08:15;4.00;99.90
47576;DHT22;33304;52.456;13.328;2024-02-26T06:10:42;3.90;99.90
47576;DHT22;33304;52.456;13.328;2024-02-26T06:13:09;3.90;99.90
47576;DHT22;33304;52.456;13.328;2024-02-26T06:15:36;4.00;99.90
47576;DHT22;33304;52.456;13.328;2024-02-26T06:18:04;4.10;99.90
47576;DHT22;33304;52.456;13.328;2024-02-26T06:20:31;4.10;99.90
47576;DHT22;33304;52.456;13.328;2024-02-26T06:22:59;4.20;99.90
47576;DHT22;33304;52.456;13.328;2024-02-26T06:25:26;4.30;99.90
47576;DHT22;33304;52.456;13.328;2024-02-26T06:27:53;4.30;99.90
47576;DHT22;33304;52.456;13.328;2024-02-26T06:30:21;4.30;99.90
47576;DHT22;33304;52.456;13.328;2024-02-26T06:32:48;4.30;99.90
47576;DHT22;33304;52.456;13.328;2024-02-26T06:35:15;4.20;99.90
47576;DHT22;33304;52.456;13.328;2024-02-26T06:37:42;4.40;99.90
47576;DHT22;33304;52.456;13.328;2024-02-26T06:40:11;4.40;99.90
47576;DHT22;33304;52.456;13.328;2024-02-26T06:42:38;4.50;99.90
47576;DHT22;33304;52.456;13.328;2024-02-26T06:45:05;4.60;99.90
47576;DHT22;33304;52.456;13.328;2024-02-26T06:47:33;4.50;99.90
47576;DHT22;33304;52.456;13.328;2024-02-26T06:50:00;4.60;99.90
47576;DHT22;33304;52.456;13.328;2024-02-26T06:52:27;4.70;99.90
47576;DHT22;33304;52.456;13.328;2024-02-26T06:54:54;4.70;99.90
47576;DHT22;33304;52.456;13.328;2024-02-26T06:57:22;4.70;99.90
47576;DHT22;33304;52.456;13.328;2024-02-26T06:59:50;4.80;99.90
47576;DHT22;33304;52.456;13.328;2024-02-26T07:02:18;4.70;99.90
47576;DHT22;33304;52.456;13.328;2024-02-26T07:04:45;4.70;99.90
47576;DHT22;33304;52.456;13.328;2024-02-26T07:07:12;4.80;99.90
47576;DHT22;33304;52.456;13.328;2024-02-26T07:09:41;4.80;99.90
47576;DHT22;33304;52.456;13.328;2024-02-26T07:12:09;4.80;99.90
47576;DHT22;33304;52.456;13.328;2024-02-26T07:14:37;4.90;99.90
47576;DHT22;33304;52.456;13.328;2024-02-26T07:17:04;5.00;99.90
47576;DHT22;33304;52.456;13.328;2024-02-26T07:19:31;5.10;99.90
47576;DHT22;33304;52.456;13.328;2024-02-26T07:21:58;5.10;99.90
47576;DHT22;33304;52.456;13.328;2024-02-26T07:24:27;5.10;99.90
47576;DHT22;33304;52.456;13.328;2024-02-26T07:26:54;5.20;99.90
47576;DHT22;33304;52.456;13.328;2024-02-26T07:29:21;5.20;99.90
47576;DHT22;33304;52.456;13.328;2024-02-26T07:31:49;5.20;97.90
47576;DHT22;33304;52.456;13.328;2024-02-26T07:34:16;5.20;97.30
47576;DHT22;33304;52.456;13.328;2024-02-26T07:36:43;5.30;96.30
47576;DHT22;33304;52.456;13.328;2024-02-26T07:39:10;5.30;95.80
47576;DHT22;33304;52.456;13.328;2024-02-26T07:41:37;5.40;95.10
47576;DHT22;33304;52.456;13.328;2024-02-26T07:44:05;5.40;93.70
47576;DHT22;33304;52.456;13.328;2024-02-26T07:46:32;5.40;92.60
47576;DHT22;33304;52.456;13.328;2024-02-26T07:49:00;5.50;91.80
47576;DHT22;33304;52.456;13.328;2024-02-26T07:51:27;5.60;89.80
47576;DHT22;33304;52.456;13.328;2024-02-26T07:53:54;5.60;88.60
47576;DHT22;33304;52.456;13.328;2024-02-26T07:56:21;5.70;83.70
47576;DHT22;33304;52.456;13.328;2024-02-26T07:58:48;5.80;83.20
47576;DHT22;33304;52.456;13.328;2024-02-26T08:01:15;5.80;77.50
47576;DHT22;33304;52.456;13.328;2024-02-26T08:03:42;5.90;77.60
47576;DHT22;33304;52.456;13.328;2024-02-26T08:06:11;5.90;77.90
47576;DHT22;33304;52.456;13.328;2024-02-26T08:08:38;6.00;74.20
47576;DHT22;33304;52.456;13.328;2024-02-26T08:11:05;6.00;71.90
47576;DHT22;33304;52.456;13.328;2024-02-26T08:13:32;6.00;70.90
47576;DHT22;33304;52.456;13.328;2024-02-26T08:15:59;6.10;68.00
47576;DHT22;33304;52.456;13.328;2024-02-26T08:18:26;6.10;67.40
47576;DHT22;33304;52.456;13.328;2024-02-26T08:20:53;6.20;63.10
47576;DHT22;33304;52.456;13.328;2024-02-26T08:23:22;6.30;63.10
47576;DHT22;33304;52.456;13.328;2024-02-26T08:25:49;6.30;61.40
47576;DHT22;33304;52.456;13.328;2024-02-26T08:28:16;6.40;63.20
47576;DHT22;33304;52.456;13.328;2024-02-26T08:30:44;6.50;61.50
47576;DHT22;33304;52.456;13.328;2024-02-26T08:33:11;6.60;59.60
47576;DHT22;33304;52.456;13.328;2024-02-26T08:35:39;6.80;58.90
47576;DHT22;33304;52.456;13.328;2024-02-26T08:38:06;6.90;54.90
47576;DHT22;33304;52.456;13.328;2024-02-26T08:40:34;6.90;52.70
47576;DHT22;33304;52.456;13.328;2024-02-26T08:43:01;7.00;50.70
47576;DHT22;33304;52.456;13.328;2024-02-26T08:45:28;7.10;48.30
47576;DHT22;33304;52.456;13.328;2024-02-26T08:47:55;7.30;47.20
47576;DHT22;33304;52.456;13.328;2024-02-26T08:50:24;7.40;44.60
47576;DHT22;33304;52.456;13.328;2024-02-26T08:52:51;7.50;42.00
47576;DHT22;33304;52.456;13.328;2024-02-26T08:55:19;7.60;42.10
47576;DHT22;33304;52.456;13.328;2024-02-26T08:57:47;7.70;38.30
47576;DHT22;33304;52.456;13.328;2024-02-26T09:00:15;7.80;40.80
47576;DHT22;33304;52.456;13.328;2024-02-26T09:02:43;8.00;41.30
47576;DHT22;33304;52.456;13.328;2024-02-26T09:05:10;8.20;36.60
47576;DHT22;33304;52.456;13.328;2024-02-26T09:07:37;8.30;34.00
47576;DHT22;33304;52.456;13.328;2024-02-26T09:10:05;8.40;32.20
47576;DHT22;33304;52.456;13.328;2024-02-26T09:12:35;8.50;32.90
47576;DHT22;33304;52.456;13.328;2024-02-26T09:15:05;8.50;29.70
47576;DHT22;33304;52.456;13.328;2024-02-26T09:17:32;8.50;28.20
47576;DHT22;33304;52.456;13.328;2024-02-26T09:19:59;8.40;28.30
47576;DHT22;33304;52.456;13.328;2024-02-26T09:22:26;8.40;27.10
47576;DHT22;33304;52.456;13.328;2024-02-26T09:24:53;8.40;27.00
47576;DHT22;33304;52.456;13.328;2024-02-26T09:27:20;8.40;26.40
47576;DHT22;33304;52.456;13.328;2024-02-26T09:29:47;8.40;27.40
47576;DHT22;33304;52.456;13.328;2024-02-26T09:32:15;8.40;26.80
47576;DHT22;33304;52.456;13.328;2024-02-26T09:34:43;8.40;26.50
47576;DHT22;33304;52.456;13.328;2024-02-26T09:37:10;8.50;26.50
47576;DHT22;33304;52.456;13.328;2024-02-26T09:39:38;8.60;26.40
47576;DHT22;33304;52.456;13.328;2024-02-26T09:42:05;8.80;25.50
47576;DHT22;33304;52.456;13.328;2024-02-26T09:45:03;8.90;24.10
47576;DHT22;33304;52.456;13.328;2024-02-26T09:47:36;9.00;22.50
47576;DHT22;33304;52.456;13.328;2024-02-26T09:50:06;9.20;22.20
47576;DHT22;33304;52.456;13.328;2024-02-26T09:52:38;9.20;22.20
47576;DHT22;33304;52.456;13.328;2024-02-26T09:55:05;9.30;22.30
47576;DHT22;33304;52.456;13.328;2024-02-26T09:57:32;9.50;22.10
47576;DHT22;33304;52.456;13.328;2024-02-26T10:00:02;9.60;21.30
47576;DHT22;33304;52.456;13.328;2024-02-26T10:02:37;9.80;20.50
47576;DHT22;33304;52.456;13.328;2024-02-26T10:05:07;10.00;18.40
47576;DHT22;33304;52.456;13.328;2024-02-26T10:07:37;10.00;16.90
47576;DHT22;33304;52.456;13.328;2024-02-26T10:10:05;10.10;15.70
47576;DHT22;33304;52.456;13.328;2024-02-26T10:12:32;10.20;14.50
47576;DHT22;33304;52.456;13.328;2024-02-26T10:14:59;10.20;14.60
47576;DHT22;33304;52.456;13.328;2024-02-26T10:17:27;10.30;14.40
47576;DHT22;33304;52.456;13.328;2024-02-26T10:20:11;10.40;12.60
47576;DHT22;33304;52.456;13.328;2024-02-26T10:22:38;10.60;12.80
47576;DHT22;33304;52.456;13.328;2024-02-26T10:25:05;10.70;12.80
47576;DHT22;33304;52.456;13.328;2024-02-26T10:27:33;10.80;12.90
47576;DHT22;33304;52.456;13.328;2024-02-26T10:30:03;11.00;12.80
47576;DHT22;33304;52.456;13.328;2024-02-26T10:32:30;10.90;11.00
47576;DHT22;33304;52.456;13.328;2024-02-26T10:34:59;11.00;13.00
47576;DHT22;33304;52.456;13.328;2024-02-26T10:37:26;11.20;11.50
47576;DHT22;33304;52.456;13.328;2024-02-26T10:39:53;11.30;10.20
47576;DHT22;33304;52.456;13.328;2024-02-26T10:42:20;11.50;11.60
47576;DHT22;33304;52.456;13.328;2024-02-26T10:44:47;11.70;9.20
47576;DHT22;33304;52.456;13.328;2024-02-26T10:47:15;11.80;6.60
47576;DHT22;33304;52.456;13.328;2024-02-26T10:49:45;11.80;5.90
47576;DHT22;33304;52.456;13.328;2024-02-26T10:52:15;11.90;5.90
47576;DHT22;33304;52.456;13.328;2024-02-26T10:54:47;12.00;4.20
47576;DHT22;33304;52.456;13.328;2024-02-26T10:57:15;12.00;3.70
47576;DHT22;33304;52.456;13.328;2024-02-26T10:59:45;12.00;3.70
47576;DHT22;33304;52.456;13.328;2024-02-26T11:02:13;12.00;3.70
47576;DHT22;33304;52.456;13.328;2024-02-26T11:04:40;12.00;3.00
47576;DHT22;33304;52.456;13.328;2024-02-26T11:07:09;12.00;3.70
47576;DHT22;33304;52.456;13.328;2024-02-26T11:09:37;12.00;2.50
47576;DHT22;33304;52.456;13.328;2024-02-26T11:12:10;12.20;2.90
47576;DHT22;33304;52.456;13.328;2024-02-26T11:14:39;12.30;1.60
47576;DHT22;33304;52.456;13.328;2024-02-26T11:17:08;12.30;1.30
47576;DHT22;33304;52.456;13.328;2024-02-26T11:19:38;12.40;1.00
47576;DHT22;33304;52.456;13.328;2024-02-26T11:22:05;12.50;1.00
47576;DHT22;33304;52.456;13.328;2024-02-26T11:24:32;12.50;1.00
47576;DHT22;33304;52.456;13.328;2024-02-26T11:27:03;12.50;1.00
47576;DHT22;33304;52.456;13.328;2024-02-26T11:29:34;12.40;1.00
47576;DHT22;33304;52.456;13.328;2024-02-26T11:32:05;12.50;1.00
47576;DHT22;33304;52.456;13.328;2024-02-26T11:34:33;12.70;1.00
47576;DHT22;33304;52.456;13.328;2024-02-26T11:37:10;12.80;1.00
47576;DHT22;33304;52.456;13.328;2024-02-26T11:39:37;13.00;1.00
47576;DHT22;33304;52.456;13.328;2024-02-26T11:42:08;13.10;1.00
47576;DHT22;33304;52.456;13.328;2024-02-26T11:44:35;13.40;1.00
47576;DHT22;33304;52.456;13.328;2024-02-26T11:47:13;13.30;1.00
47576;DHT22;33304;52.456;13.328;2024-02-26T11:49:40;13.30;1.00
47576;DHT22;33304;52.456;13.328;2024-02-26T11:52:08;13.40;1.00
47576;DHT22;33304;52.456;13.328;2024-02-26T11:54:39;13.30;1.00
47576;DHT22;33304;52.456;13.328;2024-02-26T11:57:25;13.40;1.00
47576;DHT22;33304;52.456;13.328;2024-02-26T11:59:52;13.40;1.00
47576;DHT22;33304;52.456;13.328;2024-02-26T12:02:38;13.20;1.00
47576;DHT22;33304;52.456;13.328;2024-02-26T12:05:07;13.10;1.00
47576;DHT22;33304;52.456;13.328;2024-02-26T12:07:34;13.20;1.00
47576;DHT22;33304;52.456;13.328;2024-02-26T12:10:23;13.20;1.00
47576;DHT22;33304;52.456;13.328;2024-02-26T12:12:55;13.20;1.00
47576;DHT22;33304;52.456;13.328;2024-02-26T12:15:30;13.10;1.00
47576;DHT22;33304;52.456;13.328;2024-02-26T12:17:59;13.00;1.00
47576;DHT22;33304;52.456;13.328;2024-02-26T12:20:26;13.10;1.00
47576;DHT22;33304;52.456;13.328;2024-02-26T12:22:54;13.40;1.00
47576;DHT22;33304;52.456;13.328;2024-02-26T12:25:24;13.30;1.00
47576;DHT22;33304;52.456;13.328;2024-02-26T12:27:54;13.40;1.00
47576;DHT22;33304;52.456;13.328;2024-02-26T12:30:21;13.60;1.00
47576;DHT22;33304;52.456;13.328;2024-02-26T12:32:50;13.50;1.00
47576;DHT22;33304;52.456;13.328;2024-02-26T12:35:18;13.50;1.00
47576;DHT22;33304;52.456;13.328;2024-02-26T12:37:45;13.80;1.00
47576;DHT22;33304;52.456;13.328;2024-02-26T12:40:13;13.90;1.00
47576;DHT22;33304;52.456;13.328;2024-02-26T12:42:39;14.00;1.00
47576;DHT22;33304;52.456;13.328;2024-02-26T12:45:10;14.10;1.00
47576;DHT22;33304;52.456;13.328;2024-02-26T12:47:37;14.00;1.00
47576;DHT22;33304;52.456;13.328;2024-02-26T12:50:06;14.30;1.00
47576;DHT22;33304;52.456;13.328;2024-02-26T12:52:33;14.60;1.00
47576;DHT22;33304;52.456;13.328;2024-02-26T12:55:02;14.90;1.00
47576;DHT22;33304;52.456;13.328;2024-02-26T12:57:30;14.50;1.00
47576;DHT22;33304;52.456;13.328;2024-02-26T12:59:58;14.60;1.00
47576;DHT22;33304;52.456;13.328;2024-02-26T13:02:26;14.60;1.00
47576;DHT22;33304;52.456;13.328;2024-02-26T13:04:54;14.80;1.00
47576;DHT22;33304;52.456;13.328;2024-02-26T13:07:22;14.90;1.00
47576;DHT22;33304;52.456;13.328;2024-02-26T13:09:50;15.00;1.00
47576;DHT22;33304;52.456;13.328;2024-02-26T13:12:18;15.10;1.00
47576;DHT22;33304;52.456;13.328;2024-02-26T13:14:45;15.10;1.00
47576;DHT22;33304;52.456;13.328;2024-02-26T13:17:12;14.90;1.00
47576;DHT22;33304;52.456;13.328;2024-02-26T13:19:50;14.60;1.00
47576;DHT22;33304;52.456;13.328;2024-02-26T13:22:20;14.50;1.00
47576;DHT22;33304;52.456;13.328;2024-02-26T13:24:53;14.60;1.00
47576;DHT22;33304;52.456;13.328;2024-02-26T13:27:22;14.70;1.00
47576;DHT22;33304;52.456;13.328;2024-02-26T13:30:01;14.70;1.00
47576;DHT22;33304;52.456;13.328;2024-02-26T13:32:28;14.70;1.00
47576;DHT22;33304;52.456;13.328;2024-02-26T13:35:06;14.70;1.00
47576;DHT22;33304;52.456;13.328;2024-02-26T13:37:33;14.50;1.00
47576;DHT22;33304;52.456;13.328;2024-02-26T13:40:01;14.40;1.00
47576;DHT22;33304;52.456;13.328;2024-02-26T13:42:31;14.40;1.00
47576;DHT22;33304;52.456;13.328;2024-02-26T13:44:58;14.40;1.00
47576;DHT22;33304;52.456;13.328;2024-02-26T13:47:25;14.30;1.00
47576;DHT22;33304;52.456;13.328;2024-02-26T13:49:52;14.10;1.00
47576;DHT22;33304;52.456;13.328;2024-02-26T13:52:22;13.90;1.00
47576;DHT22;33304;52.456;13.328;2024-02-26T13:54:49;13.90;1.00
47576;DHT22;33304;52.456;13.328;2024-02-26T13:57:16;13.90;1.00
47576;DHT22;33304;52.456;13.328;2024-02-26T13:59:43;13.80;1.00
47576;DHT22;33304;52.456;13.328;2024-02-26T14:02:11;13.70;1.00
47576;DHT22;33304;52.456;13.328;2024-02-26T14:04:38;13.70;1.00
47576;DHT22;33304;52.456;13.328;2024-02-26T14:07:05;13.60;1.00
47576;DHT22;33304;52.456;13.328;2024-02-26T14:09:33;13.30;1.00
47576;DHT22;33304;52.456;13.328;2024-02-26T14:12:00;13.30;1.00
47576;DHT22;33304;52.456;13.328;2024-02-26T14:14:27;13.20;1.00
47576;DHT22;33304;52.456;13.328;2024-02-26T14:16:55;13.10;1.00
47576;DHT22;33304;52.456;13.328;2024-02-26T14:19:22;13.20;1.00
47576;DHT22;33304;52.456;13.328;2024-02-26T14:21:49;13.20;1.00
47576;DHT22;33304;52.456;13.328;2024-02-26T14:24:16;13.20;1.00
47576;DHT22;33304;52.456;13.328;2024-02-26T14:26:44;13.10;1.00
47576;DHT22;33304;52.456;13.328;2024-02-26T14:29:12;13.10;1.00
47576;DHT22;33304;52.456;13.328;2024-02-26T14:31:40;13.10;1.00
47576;DHT22;33304;52.456;13.328;2024-02-26T14:34:07;13.10;1.00
47576;DHT22;33304;52.456;13.328;2024-02-26T14:36:35;13.10;1.00
47576;DHT22;33304;52.456;13.328;2024-02-26T14:39:02;13.10;1.00
47576;DHT22;33304;52.456;13.328;2024-02-26T14:41:30;13.10;1.00
47576;DHT22;33304;52.456;13.328;2024-02-26T14:43:58;13.10;1.00
47576;DHT22;33304;52.456;13.328;2024-02-26T14:46:25;13.10;1.00
47576;DHT22;33304;52.456;13.328;2024-02-26T14:48:52;13.00;1.00
47576;DHT22;33304;52.456;13.328;2024-02-26T14:51:19;12.80;1.00
47576;DHT22;33304;52.456;13.328;2024-02-26T14:53:46;12.70;1.00
47576;DHT22;33304;52.456;13.328;2024-02-26T14:56:13;12.60;1.00
47576;DHT22;33304;52.456;13.328;2024-02-26T14:58:40;12.60;1.00
47576;DHT22;33304;52.456;13.328;2024-02-26T15:01:09;12.50;1.00
47576;DHT22;33304;52.456;13.328;2024-02-26T15:03:36;12.40;1.00
47576;DHT22;33304;52.456;13.328;2024-02-26T15:06:03;12.40;1.00
47576;DHT22;33304;52.456;13.328;2024-02-26T15:08:31;12.40;1.00
47576;DHT22;33304;52.456;13.328;2024-02-26T15:11:00;12.40;1.00
47576;DHT22;33304;52.456;13.328;2024-02-26T15:13:27;12.30;1.00
47576;DHT22;33304;52.456;13.328;2024-02-26T15:15:54;12.30;1.00
47576;DHT22;33304;52.456;13.328;2024-02-26T15:18:22;12.30;1.00
47576;DHT22;33304;52.456;13.328;2024-02-26T15:20:50;12.30;1.00
47576;DHT22;33304;52.456;13.328;2024-02-26T15:23:17;12.30;1.00
47576;DHT22;33304;52.456;13.328;2024-02-26T15:25:44;12.20;1.00
47576;DHT22;33304;52.456;13.328;2024-02-26T15:28:12;12.10;1.00
47576;DHT22;33304;52.456;13.328;2024-02-26T15:30:40;12.00;1.00
47576;DHT22;33304;52.456;13.328;2024-02-26T15:33:08;11.90;1.00
47576;DHT22;33304;52.456;13.328;2024-02-26T15:35:36;11.90;1.00